weather.gov     
National Weather Service

Terminal Aerodrome Forecast
NWS Homepage
This page is being discontinued on March 12, 2014.
The same data is available at this site. Please update your bookmarks.
Thank you, and we apologize for the inconvenience.
Please send an email to SR-SRH.Webmaster@noaa.gov with any concerns.


Current Version
Previous Version:    01  02  03  04  05  06  07  08  09  10  11  12  13  14  15  16  17  18  19  20  21  22  23  24  25  26  27  28  29  30  
   31  32  33  34  35  36  37  38  39  40  41  42  43  44  45  46  47  48  49  
[Printable]
913
FTUS45 KGJT 231939 AAB
TAFRIL
TAF AMD
KRIL 231939Z 2320/2418 28010KT P6SM VCSH FEW010 BKN030 OVC050
      TEMPO 2320/2322 32005KT 5SM -SHSN SCT010 BKN040
     FM232200 29012G20KT P6SM VCSH SCT020 OVC060
     FM240100 30009KT P6SM BKN070
     FM240500 VRB03KT P6SM BKN070
     FM241300 26008KT P6SM BKN025 OVC070=


913
FTUS45 KGJT 231939 AAB
TAFRIL
TAF AMD
KRIL 231939Z 2320/2418 28010KT P6SM VCSH FEW010 BKN030 OVC050
      TEMPO 2320/2322 32005KT 5SM -SHSN SCT010 BKN040
     FM232200 29012G20KT P6SM VCSH SCT020 OVC060
     FM240100 30009KT P6SM BKN070
     FM240500 VRB03KT P6SM BKN070
     FM241300 26008KT P6SM BKN025 OVC070=




U.S. Dept. of Commerce
NOAA National Weather Service
1325 East West Highway
Silver Spring, MD 20910
E-mail: w-nws.webmaster@noaa.gov
Page last modified: May 16, 2007
NATIONAL WEATHER SERVICE: for Safety, for Work, for Fun - FOR LIFE